Time,TemperatureF,DewpointF,PressureIn,WindDirection,WindDirectionDegrees,WindSpeedMPH,WindSpeedGustMPH,Humidity,HourlyPrecipIn,Conditions,Clouds,dailyrainin,SolarRadiationWatts/m^2,SoftwareType,DateUTC
2013-02-16 00:21:00,41.0,-3.0,-100.00,NE,55,5.0,11.0,15,0.00,,,0.00,0.000000,,2013-02-16 08:21:00,
2013-02-16 00:31:00,41.0,-3.0,-100.00,NE,55,5.0,11.0,15,0.00,,,0.00,0.000000,,2013-02-16 08:31:00,
2013-02-16 00:41:00,41.0,-3.0,-100.00,NE,55,5.0,11.0,15,0.00,,,0.00,0.000000,,2013-02-16 08:41:00,
2013-02-16 01:21:00,41.0,-13.0,-100.00,ESE,117,3.0,12.0,9,0.00,,,0.00,0.000000,,2013-02-16 09:21:00,
2013-02-16 02:21:00,42.0,-15.0,-100.00,ESE,118,5.0,10.0,8,0.00,,,0.00,0.000000,,2013-02-16 10:21:00,
2013-02-16 03:22:00,41.0,-13.0,-100.00,ESE,123,5.0,10.0,9,0.00,,,0.00,0.000000,,2013-02-16 11:22:00,
2013-02-16 04:12:00,40.0,-8.0,-100.00,ESE,117,2.0,10.0,12,0.00,,,-99.99,0.000000,,2013-02-16 12:12:00,
2013-02-16 04:22:00,40.0,-8.0,-100.00,ESE,117,2.0,10.0,12,0.00,,,-99.99,0.000000,,2013-02-16 12:22:00,
2013-02-16 05:11:00,39.0,-13.0,-100.00,ESE,121,4.0,10.0,10,0.00,,,0.00,0.000000,,2013-02-16 13:11:00,
2013-02-16 05:21:00,39.0,-13.0,-100.00,ESE,121,4.0,10.0,10,0.00,,,0.00,0.000000,,2013-02-16 13:21:00,
2013-02-16 06:11:00,41.0,-13.0,-100.00,ESE,117,4.0,13.0,9,0.00,,,0.00,0.000000,,2013-02-16 14:11:00,
2013-02-16 07:21:00,39.0,-15.0,-100.00,ENE,77,3.0,9.0,9,0.00,,,0.00,1.000000,,2013-02-16 15:21:00,
2013-02-16 08:11:00,40.0,-12.0,-100.00,ENE,68,4.0,9.0,10,0.00,,,0.00,63.000000,,2013-02-16 16:11:00,
2013-02-16 09:21:00,43.0,-4.0,-100.00,ESE,106,1.0,11.0,13,0.00,,,-99.99,265.000000,,2013-02-16 17:21:00,
2013-02-16 09:32:00,43.0,-4.0,-100.00,ESE,106,1.0,11.0,13,0.00,,,-99.99,265.000000,,2013-02-16 17:32:00,
2013-02-16 09:51:00,48.0,0.0,-100.00,ESE,123,4.0,9.0,13,0.00,,,0.00,462.000000,,2013-02-16 17:51:00,
2013-02-16 10:11:00,48.0,0.0,-100.00,ESE,123,4.0,9.0,13,0.00,,,0.00,462.000000,,2013-02-16 18:11:00,
2013-02-16 10:21:00,48.0,0.0,-100.00,ESE,123,4.0,9.0,13,0.00,,,0.00,462.000000,,2013-02-16 18:21:00,
2013-02-16 10:32:00,48.0,0.0,-100.00,ESE,123,4.0,9.0,13,0.00,,,0.00,462.000000,,2013-02-16 18:32:00,
2013-02-16 10:41:00,48.0,0.0,-100.00,ESE,123,4.0,9.0,13,0.00,,,0.00,462.000000,,2013-02-16 18:41:00,
2013-02-16 10:51:00,49.0,7.0,-100.00,ESE,103,1.0,11.0,18,0.00,,,0.00,735.000000,,2013-02-16 18:51:00,
2013-02-16 11:11:00,49.0,7.0,-100.00,ESE,103,1.0,11.0,18,0.00,,,0.00,735.000000,,2013-02-16 19:11:00,
2013-02-16 11:21:00,49.0,7.0,-100.00,ESE,103,1.0,11.0,18,0.00,,,0.00,735.000000,,2013-02-16 19:21:00,
2013-02-16 11:42:00,49.0,7.0,-100.00,ESE,103,1.0,11.0,18,0.00,,,0.00,735.000000,,2013-02-16 19:42:00,
2013-02-16 11:51:00,54.0,9.0,-100.00,SE,125,4.0,9.0,16,0.00,,,0.00,1062.000000,,2013-02-16 19:51:00,
2013-02-16 12:11:00,54.0,9.0,-100.00,SE,125,4.0,9.0,16,0.00,,,0.00,1062.000000,,2013-02-16 20:11:00,
2013-02-16 12:42:00,54.0,9.0,-100.00,SE,125,4.0,9.0,16,0.00,,,0.00,1062.000000,,2013-02-16 20:42:00,
2013-02-16 12:51:00,52.0,6.0,-100.00,SE,144,7.0,14.0,15,0.00,,,0.00,1110.000000,,2013-02-16 20:51:00,
2013-02-16 13:11:00,52.0,6.0,-100.00,SE,144,7.0,14.0,15,0.00,,,0.00,1110.000000,,2013-02-16 21:11:00,
2013-02-16 13:21:00,52.0,6.0,-100.00,SE,144,7.0,14.0,15,0.00,,,0.00,1110.000000,,2013-02-16 21:21:00,
2013-02-16 13:41:00,52.0,6.0,-100.00,SE,144,7.0,14.0,15,0.00,,,0.00,1110.000000,,2013-02-16 21:41:00,
2013-02-16 13:51:00,50.0,1.0,-100.00,SSE,163,4.0,14.0,13,0.00,,,0.00,880.000000,,2013-02-16 21:51:00,
2013-02-16 14:11:00,50.0,1.0,-100.00,SSE,163,4.0,14.0,13,0.00,,,0.00,880.000000,,2013-02-16 22:11:00,
2013-02-16 14:21:00,50.0,1.0,-100.00,SSE,163,4.0,14.0,13,0.00,,,0.00,880.000000,,2013-02-16 22:21:00,
2013-02-16 14:32:00,50.0,1.0,-100.00,SSE,163,4.0,14.0,13,0.00,,,0.00,880.000000,,2013-02-16 22:32:00,
2013-02-16 14:42:00,50.0,1.0,-100.00,SSE,163,4.0,14.0,13,0.00,,,0.00,880.000000,,2013-02-16 22:42:00,
2013-02-16 14:51:00,49.0,3.0,-100.00,South,183,3.0,9.0,15,0.00,,,0.00,811.000000,,2013-02-16 22:51:00,
2013-02-16 15:21:00,49.0,3.0,-100.00,South,183,3.0,9.0,15,0.00,,,0.00,811.000000,,2013-02-16 23:21:00,
2013-02-16 15:31:00,49.0,3.0,-100.00,South,183,3.0,9.0,15,0.00,,,0.00,811.000000,,2013-02-16 23:31:00,
2013-02-16 15:42:00,49.0,3.0,-100.00,South,183,3.0,9.0,15,0.00,,,0.00,811.000000,,2013-02-16 23:42:00,
2013-02-16 15:51:00,46.0,5.0,-100.00,South,176,3.0,7.0,18,0.00,,,0.00,344.000000,,2013-02-16 23:51:00,
2013-02-16 16:21:00,46.0,5.0,-100.00,South,176,3.0,7.0,18,0.00,,,0.00,344.000000,,2013-02-17 00:21:00,
2013-02-16 16:31:00,46.0,5.0,-100.00,South,176,3.0,7.0,18,0.00,,,0.00,344.000000,,2013-02-17 00:31:00,
2013-02-16 16:41:00,46.0,5.0,-100.00,South,176,3.0,7.0,18,0.00,,,0.00,344.000000,,2013-02-17 00:41:00,
2013-02-16 16:51:00,43.0,9.0,-100.00,SSW,196,2.0,9.0,24,0.00,,,0.00,105.000000,,2013-02-17 00:51:00,
2013-02-16 17:21:00,43.0,9.0,-100.00,SSW,196,2.0,9.0,24,0.00,,,0.00,105.000000,,2013-02-17 01:21:00,
2013-02-16 17:31:00,43.0,9.0,-100.00,SSW,196,2.0,9.0,24,0.00,,,0.00,105.000000,,2013-02-17 01:31:00,
2013-02-16 17:41:00,43.0,9.0,-100.00,SSW,196,2.0,9.0,24,0.00,,,0.00,105.000000,,2013-02-17 01:41:00,
2013-02-16 17:51:00,41.0,4.0,-100.00,South,184,0.0,5.0,21,0.00,,,0.00,40.000000,,2013-02-17 01:51:00,
2013-02-16 18:21:00,41.0,4.0,-100.00,South,184,0.0,5.0,21,0.00,,,0.00,40.000000,,2013-02-17 02:21:00,
2013-02-16 18:31:00,41.0,4.0,-100.00,South,184,0.0,5.0,21,0.00,,,0.00,40.000000,,2013-02-17 02:31:00,
2013-02-16 18:41:00,41.0,4.0,-100.00,South,184,0.0,5.0,21,0.00,,,0.00,40.000000,,2013-02-17 02:41:00,
2013-02-16 18:51:00,38.0,2.0,-100.00,South,188,0.0,4.0,21,0.00,,,0.00,0.000000,,2013-02-17 02:51:00,
2013-02-16 19:11:00,38.0,2.0,-100.00,South,188,0.0,4.0,21,0.00,,,0.00,0.000000,,2013-02-17 03:11:00,
2013-02-16 19:21:00,38.0,2.0,-100.00,South,188,0.0,4.0,21,0.00,,,0.00,0.000000,,2013-02-17 03:21:00,
2013-02-16 19:31:00,38.0,2.0,-100.00,South,188,0.0,4.0,21,0.00,,,0.00,0.000000,,2013-02-17 03:31:00,
2013-02-16 19:42:00,38.0,2.0,-100.00,South,188,0.0,4.0,21,0.00,,,0.00,0.000000,,2013-02-17 03:42:00,
2013-02-16 19:51:00,38.0,4.0,-100.00,WSW,251,3.0,5.0,24,0.00,,,0.00,0.000000,,2013-02-17 03:51:00,
2013-02-16 20:11:00,38.0,4.0,-100.00,WSW,251,3.0,5.0,24,0.00,,,0.00,0.000000,,2013-02-17 04:11:00,
2013-02-16 20:21:00,38.0,4.0,-100.00,WSW,251,3.0,5.0,24,0.00,,,0.00,0.000000,,2013-02-17 04:21:00,
2013-02-16 20:31:00,38.0,4.0,-100.00,WSW,251,3.0,5.0,24,0.00,,,0.00,0.000000,,2013-02-17 04:31:00,
2013-02-16 20:41:00,38.0,4.0,-100.00,WSW,251,3.0,5.0,24,0.00,,,0.00,0.000000,,2013-02-17 04:41:00,
2013-02-16 20:51:00,38.0,9.0,-100.00,NW,317,5.0,6.0,29,0.00,,,0.00,0.000000,,2013-02-17 04:51:00,
2013-02-16 21:22:00,38.0,9.0,-100.00,NW,317,5.0,6.0,29,0.00,,,0.00,0.000000,,2013-02-17 05:22:00,
2013-02-16 21:32:00,38.0,9.0,-100.00,NW,317,5.0,6.0,29,0.00,,,0.00,0.000000,,2013-02-17 05:32:00,
2013-02-16 21:42:00,38.0,9.0,-100.00,NW,317,5.0,6.0,29,0.00,,,0.00,0.000000,,2013-02-17 05:42:00,
2013-02-16 21:51:00,37.0,6.0,-100.00,NNW,327,7.0,11.0,27,0.00,,,0.00,0.000000,,2013-02-17 05:51:00,
2013-02-16 22:11:00,37.0,6.0,-100.00,NNW,327,7.0,11.0,27,0.00,,,0.00,0.000000,,2013-02-17 06:11:00,
2013-02-16 22:21:00,37.0,6.0,-100.00,NNW,327,7.0,11.0,27,0.00,,,0.00,0.000000,,2013-02-17 06:21:00,
2013-02-16 22:31:00,37.0,6.0,-100.00,NNW,327,7.0,11.0,27,0.00,,,0.00,0.000000,,2013-02-17 06:31:00,
2013-02-16 22:41:00,37.0,6.0,-100.00,NNW,327,7.0,11.0,27,0.00,,,0.00,0.000000,,2013-02-17 06:41:00,
2013-02-16 22:51:00,35.0,4.0,-100.00,NNE,19,8.0,13.0,27,0.00,,,0.00,0.000000,,2013-02-17 06:51:00,
2013-02-16 23:11:00,35.0,4.0,-100.00,NNE,19,8.0,13.0,27,0.00,,,0.00,0.000000,,2013-02-17 07:11:00,
2013-02-16 23:21:00,35.0,4.0,-100.00,NNE,19,8.0,13.0,27,0.00,,,0.00,0.000000,,2013-02-17 07:21:00,
2013-02-16 23:31:00,35.0,4.0,-100.00,NNE,19,8.0,13.0,27,0.00,,,0.00,0.000000,,2013-02-17 07:31:00,
2013-02-16 23:41:00,35.0,4.0,-100.00,NNE,19,8.0,13.0,27,0.00,,,0.00,0.000000,,2013-02-17 07:41:00,
2013-02-16 23:51:00,38.0,3.0,-100.00,SSW,210,5.0,12.0,22,0.00,,,0.00,0.000000,,2013-02-17 07:51:00,